Logo

Startovka závodu: O-Adventure - E5

Datum:
23.07.2023
Místo konání:
Špindlerův Mlýn
Pořadatel:
OAV - Orienteering Adventure
Mapa:
Ředitel závodu:
Leštínský Tomáš - R3
Hlavní rozhodčí:
Fátor Jan - R2
Stavitel tratí:
Viková Vendula - R2
Kategorie:
BEGINNERS     D10     D12     D14     D16     D18     D21A     D21B     D21C     D35A     D35B     D45A     D45B     D55A     D55B     D65     H10     H12     H14     H16     H18     H21A     H21B     H21C     H35A     H35B     H45A     H45B     H55A     H55B     H65     H75     HDR     P     T    
Nahrávám data...

BEGINNERS 2.08 km, 70 m, 7 kontrol, Start: 1

Čas startu Čas startu od 00 Start. č. Jméno Reg. číslo SI čip Lic. Klub
10:45:00 45:00 3 Kuhl Bettina 0100002 1407595 010-Team Sonnenschein
10:51:00 51:00 406 Poláková Lucie VRL8254 8886 C OOS TJ Spartak Vrchlabí

D10 1.69 km, 50 m, 7 kontrol, Start: 1

Čas startu Čas startu od 00 Start. č. Jméno Reg. číslo SI čip Lic. Klub
10:00:00 00:00 4 Feřtová Alžběta VLI1451 2144040 C Slavia Liberec orienteering
10:06:00 06:00 9 Lachká Zuzka 0110015 2111075 011-KOB Sokol Pezinok
10:07:00 07:00 5 Fraňová Hanka 0110023 2111079 011-KOB Sokol Pezinok
10:08:00 08:00 6 Hanslianová Julie PGP1552 2419961 C SK Praga
10:09:00 09:00 7 Kuchárikova Betka 0110013 2111073 011-KOB Sokol Pezinok
10:10:00 10:00 10 Voleská Andrea KAM1456 2222807 C OK Kamenice
10:11:00 11:00 11 Nová Eliška Anna DKP1551 51787 C Oddíl OB Kotlářka
10:12:00 12:00 12 Tomášková Lucie STE1350 232959 C SK SKI-OB Šternberk

D12 2.08 km, 70 m, 7 kontrol, Start: 1

Čas startu Čas startu od 00 Start. č. Jméno Reg. číslo SI čip Lic. Klub
10:15:00 15:00 13 Heczková Emma VLI1252 8196060 B Slavia Liberec orienteering
10:33:50 33:50 14 Gregorová Magdalena DKP1158 2121756 C Oddíl OB Kotlářka
10:39:00 39:00 16 Krivková Lenka 0200001 1712971 020-Klub OB Martin
10:40:00 40:00 15 Kubešová Eliška VLI1152 8501562 B Slavia Liberec orienteering
10:41:00 41:00 18 Hančová Alice TAP1257 2085610 C KOB Tretra Praha

D14 2.81 km, 120 m, 10 kontrol, Start: 1

Čas startu Čas startu od 00 Start. č. Jméno Reg. číslo SI čip Lic. Klub
10:45:00 45:00 21 Pechová Marie VLI1050 8015312 B Slavia Liberec orienteering
10:53:45 53:45 19 Barsová Magdaléna VLI0955 7090004 C Slavia Liberec orienteering
11:00:53 60:53 23 Feřtová Eliška VLI1056 2118485 B Slavia Liberec orienteering
11:20:30 80:30 26 Syrová Lucka 0110006 8400037 011-KOB Sokol Pezinok
11:20:39 80:39 30 Čalounová Klára VLI0950 2001998 C Slavia Liberec orienteering
11:25:35 85:35 25 Kubešová Tereza VLI0954 8508191 B Slavia Liberec orienteering
11:31:00 91:00 28 Macháčková Peťa 0130001 2136800 013-Viatoris Zvolen
11:32:00 92:00 29 Šmidová Kaja 0150005 1712980 015-KOB Martin
11:33:00 93:00 27 Hrdá Kristýna VLI0953 2801288 C Slavia Liberec orienteering
11:34:00 94:00 22 Guštafíkova Danka 0110028 1407855 011-KOB Sokol Pezinok
11:35:00 95:00 31 Tomášková Anna STE1051 8183015 B SK SKI-OB Šternberk
11:36:00 96:00 20 Marková Zuzka 0110017 8110009 011-KOB Sokol Pezinok
11:37:00 97:00 24 Horská Lucka 0110026 2111080 011-KOB Sokol Pezinok

D16 3.98 km, 195 m, 12 kontrol, Start: 1

Čas startu Čas startu od 00 Start. č. Jméno Reg. číslo SI čip Lic. Klub
10:15:00 15:00 36 Kynčlová Anna JIL0852 8140914 A OK Jilemnice
10:33:46 33:46 33 Malá Anežka JIL0751 8670769 B OK Jilemnice
11:10:10 70:10 38 Votočková Amelie JIL0750 8047184 C OK Jilemnice
11:16:00 76:00 35 Marková Adel 0110016 8110045 011-KOB Sokol Pezinok
11:17:00 77:00 37 Kvášovská Ludmila LTU0753 8680392 B OOB TJ Lokomotiva Trutnov

D18 4.12 km, 240 m, 13 kontrol, Start: 1

Čas startu Čas startu od 00 Start. č. Jméno Reg. číslo SI čip Lic. Klub
10:30:00 30:00 39 Kubecová Magdalena STB0550 8033222 A TJ Stadion Nový Bor
10:36:00 36:00 40 Plecháčová Marie NPA0652 2122274 B SK LOB Nová Paka
10:37:00 37:00 41 Výchová Veronika SRK0557 8014445 B SOOB Spartak Rychnov n.Kn.

D21A 4.84 km, 270 m, 15 kontrol, Start: 1

Čas startu Čas startu od 00 Start. č. Jméno Reg. číslo SI čip Lic. Klub
10:30:00 30:00 49 Rollier Monika PHK8051 8680379 C OK 99 Hradec Králové
10:40:11 40:11 46 Ślusarczyk Katarzyna 23P8951 8636522 OK!Sport Warszawa
10:43:00 43:00 43 Nováková Zuzana NPA9151 8116676 C SK LOB Nová Paka
10:56:43 56:43 48 Westin Emilie 0190002 8221331 019-Nydalens SK
11:13:13 73:13 45 Labašová Katarína 0330001 8019949 033-Akademik TU Košice
11:19:00 79:00 53 Zajícová Kateřina TAP9053 8660524 C KOB Tretra Praha
11:20:00 80:00 42 Westin Kjersti 0190001 8006734 019-Nydalens SK
11:21:00 81:00 51 Kováčová Zuzana ZBM0262 8119490 E SK Brno Žabovřesky
11:22:00 82:00 404 Jelínková Šárka PGP9153 8007177 C SK Praga
11:23:00 83:00 59 Pekařová Jana TUR0252 8107724 E OOB TJ Turnov
11:24:00 84:00 403 Jelínková Zora PGP8851 8005130 C SK Praga
11:25:00 85:00 54 Müllerová Eva PGP9657 8064449 C SK Praga
11:26:00 86:00 57 Fořtová Johana PGP9354 8226366 C SK Praga
11:27:00 87:00 62 Blažková Kristina DKP8251 8014545 C Oddíl OB Kotlářka
11:28:00 88:00 55 Zlámalová Nikola SJC9951 8107998 E Sportcentrum Jičín
11:29:00 89:00 44 Pachnik Małgorzata 19P9350 8110693 UKS "Orientpark.pl" Iwiny
11:30:00 90:00 376 Vakant 0 Vakant

D21B 4.31 km, 270 m, 13 kontrol, Start: 1

Čas startu Čas startu od 00 Start. č. Jméno Reg. číslo SI čip Lic. Klub
10:00:00 00:00 64 Šklíbová Michaela TJN0153 8660383 C OOB TJ Tatran Jablonec n. N.
10:05:19 05:19 70 Zelníkova Barča 0110010 8300062 011-KOB Sokol Pezinok
10:11:00 11:00 68 Kašparová Šárka AOP7251 7522295 C Orientační Běh Opava
10:12:00 12:00 63 Szymanská Zuzana DKP0463 8014458 C Oddíl OB Kotlářka
10:13:00 13:00 71 Kučerová Lucie STH9251 331285 C SK Studenec

D21C 3.67 km, 115 m, 12 kontrol, Start: 1

Čas startu Čas startu od 00 Start. č. Jméno Reg. číslo SI čip Lic. Klub
10:30:00 30:00 374 Dubská Veronika XXX 500261 XXX
11:27:45 87:45 75 Erlebachová Aneta 0050003 8003632 005-Špindl sportuje
11:33:00 93:00 77 Hendrychová Zuzana ZBM8954 8660408 C SK Brno Žabovřesky

D35A 3.90 km, 175 m, 12 kontrol, Start: 1

Čas startu Čas startu od 00 Start. č. Jméno Reg. číslo SI čip Lic. Klub
10:00:00 00:00 80 Krajíčková Petra KON8787 515153 C KOB Konice
10:06:10 06:10 79 Jiřištová Zuzana DKP8254 8116737 C Oddíl OB Kotlářka
10:21:34 21:34 78 Šťastná Lenka CTB8351 2082926 C SK OB Chotěboř
10:27:00 27:00 81 Waldhauserová Irena BOR7459 8226310 C OK Jiskra Nový Bor
10:28:00 28:00 83 Drábková Zuzana TBM8452 8100025 C KOS TJ Tesla Brno

D35B 3.90 km, 175 m, 12 kontrol, Start: 1

Čas startu Čas startu od 00 Start. č. Jméno Reg. číslo SI čip Lic. Klub
10:15:00 15:00 88 Muchová Barbora KVS8550 8007195 C SKOB Kobra Vsetín
10:16:54 16:54 86 Makaloušová Hana 0050001 8005424 005-Špindl sportuje
10:22:00 22:00 87 Salingerová Eliška LCE8451 8501501 C OOB TJ Slovan Luhačovice
10:23:00 23:00 91 Tomášková Petra STE8250 2106723 C SK SKI-OB Šternberk

D45A 4.19 km, 120 m, 12 kontrol, Start: 1

Čas startu Čas startu od 00 Start. č. Jméno Reg. číslo SI čip Lic. Klub
10:15:00 15:00 99 Městková Lucie TEP7850 8410791 C Tempo Praha
10:16:00 16:00 98 Skyvová Kristýna STE7054 8655383 C SK SKI-OB Šternberk
10:21:24 21:24 97 Peteráčová Hyxová Radka VLI7755 8516251 C Slavia Liberec orienteering
10:23:32 23:32 96 Gajdová Kristina VSP7752 8505712 C USK Praha
10:38:27 38:27 95 Kosová Michaela PHK6752 8660597 C OK 99 Hradec Králové
10:43:16 43:16 93 Jirková Renata ZPV6553 8047130 C KOB ZPV Prostějov
10:49:00 49:00 92 Benešová Radka VLI7653 8410767 C Slavia Liberec orienteering
10:50:00 50:00 100 Junková Petra STH7451 8330759 C SK Studenec
10:51:00 51:00 101 Kožinová Jana PGP6651 8680353 C SK Praga
10:52:00 52:00 94 Mrskočová Dana LPU7356 8033225 C OK Lokomotiva Pardubice

D45B 3.67 km, 115 m, 12 kontrol, Start: 1

Čas startu Čas startu od 00 Start. č. Jméno Reg. číslo SI čip Lic. Klub
11:05:00 65:00 106 Havlík Poláková Pavlína VRL7851 1409092 C OOS TJ Spartak Vrchlabí
11:18:05 78:05 105 Junková Kateřina STH7351 7204984 C SK Studenec
11:34:54 94:54 103 Mašatová Zorka 0280001 207870 028-U Studánky
11:36:09 96:09 102 Westin Lenka 0160002 8006758 016-Porsgrunn OL
11:45:42 105:42 109 Časnochova Tatiana 0310001 8299906 031-HBB
11:53:53 113:53 112 Kubecová Jana STB7399 8119537 C TJ Stadion Nový Bor
11:57:53 117:53 111 Nechutová Alena PZR6969 8022352 C UNITOP SKP Žďár nad Sázavou
11:59:00 119:00 110 Kándlová Adéla DCE7550 2113044 C KOB Dobřichovice
12:00:00 120:00 104 Krausová Marcela LCV7351 253153 C TJ Lokomotiva Chomutov
12:01:00 121:00 108 Lockerová Milena SRK7251 2151449 C SOOB Spartak Rychnov n.Kn.
12:02:00 122:00 107 Douchová Jaroslava SNA7155 9606 C TJ START Náchod
12:03:00 123:00 411 Košíková Jitka VSP7799 8020233 C USK Praha
12:04:00 124:00 113 Hrdličková Ludmila SLA6950 8033240 C SKOB Slaný
12:05:00 125:00 115 Weberová Zuzana PHK6961 9462 C OK 99 Hradec Králové
12:06:00 126:00 114 Kynčlová Dagmar JIL7256 9074 C OK Jilemnice

D55A 3.96 km, 160 m, 14 kontrol, Start: 1

Čas startu Čas startu od 00 Start. č. Jméno Reg. číslo SI čip Lic. Klub
10:15:00 15:00 119 Pechová Iva LPM6151 8014556 C OK Lokomotiva Plzeň
10:22:24 22:24 120 Kohlová Alena KPY6051 53182 C SOOB TJ Sokol Kralupy n.Vlt.
10:48:30 48:30 121 Kábrtová Iva PEN6350 8030630 C OK RECO Sport
11:10:31 70:31 118 Makovicka Veronique 0030002 8196511 003-CO Colmar
11:16:00 76:00 117 Malačková Jana DKP6150 232646 C Oddíl OB Kotlářka
11:17:00 77:00 116 Denysenko Tamara TRI6150 8012045 C TJ TŽ Třinec

D55B 2.62 km, 100 m, 10 kontrol, Start: 1

Čas startu Čas startu od 00 Start. č. Jméno Reg. číslo SI čip Lic. Klub
10:45:00 45:00 123 Švarcová Lenka JEN6451 8033291 C OB Jenišovice
11:13:47 73:47 125 Jordanová Blanka VBM6851 410321 C VSK Mendelu Brno
11:44:41 104:41 124 Štefko Izabela 0150006 2001945 015-KOB Martin

D65 3.10 km, 100 m, 12 kontrol, Start: 1

Čas startu Čas startu od 00 Start. č. Jméno Reg. číslo SI čip Lic. Klub
10:45:00 45:00 128 Procházková Miluše DCE5450 8303060 C KOB Dobřichovice
10:51:00 51:00 130 Hušková Eva NPA5754 8409846 C SK LOB Nová Paka
10:52:00 52:00 127 Nováková Jana NPA5552 2060214 C SK LOB Nová Paka

H10 1.69 km, 50 m, 7 kontrol, Start: 1

Čas startu Čas startu od 00 Start. č. Jméno Reg. číslo SI čip Lic. Klub
10:30:00 30:00 131 Pecánek Matěj TEP1300 51647 C Tempo Praha
10:30:24 30:24 132 Guida Sebastian VLI1302 2039826 C Slavia Liberec orienteering
10:33:59 33:59 135 Glier Matyáš OSN1313 8183127 C SK Orientační sporty Nové Město na Moravě
10:46:49 46:49 134 Marko Adam 0110018 2111076 011-KOB Sokol Pezinok
10:59:15 59:15 137 Potštejnský Vítek SRK1349 2211638 SOOB Spartak Rychnov n.Kn.
11:05:00 65:00 139 Sumega Peťko 0110005 2111072 011-KOB Sokol Pezinok
11:06:00 66:00 138 Rollier Alexei PHK1502 8005907 C OK 99 Hradec Králové
11:07:00 67:00 136 Podhorný Prokop VLI1303 2419926 C Slavia Liberec orienteering
11:08:00 68:00 142 Hanč Marek TAP1402 981811 C KOB Tretra Praha
11:09:00 69:00 140 Matějů Emil VLI1500 515173 C Slavia Liberec orienteering

H12 2.14 km, 70 m, 8 kontrol, Start: 1

Čas startu Čas startu od 00 Start. č. Jméno Reg. číslo SI čip Lic. Klub
10:15:00 15:00 152 Šťastný Antonín CTB1101 8003650 B SK OB Chotěboř
10:31:24 31:24 146 Junek Kryštof DKP1212 8680407 C Oddíl OB Kotlářka
11:12:43 72:43 145 Matějů Eda VLI1200 8196044 B Slavia Liberec orienteering
11:14:19 74:19 148 Brezovský Sebi 0110001 2211372 011-KOB Sokol Pezinok
11:20:00 80:00 151 Oravec Matúš 0150004 8017380 015-KOB Martin
11:21:00 81:00 150 Potštejnský Vojtěch SRK1102 2224797 C SOOB Spartak Rychnov n.Kn.
11:22:00 82:00 153 Voleský Viktor KAM1103 8501496 C OK Kamenice
11:23:00 83:00 147 Handrk Adam VLI1206 2211650 C Slavia Liberec orienteering
11:24:00 84:00 149 Matějů Josef VLI1300 8133261 C Slavia Liberec orienteering

H14 3.03 km, 125 m, 10 kontrol, Start: 1

Čas startu Čas startu od 00 Start. č. Jméno Reg. číslo SI čip Lic. Klub
10:45:00 45:00 166 Kvášovský Filip LTU0902 8028803 B OOB TJ Lokomotiva Trutnov
10:54:10 54:10 157 Junek Šimon DKP1011 8680325 B Oddíl OB Kotlářka
11:21:18 81:18 161 Beneš Maxmilián VLI1100 8501669 B Slavia Liberec orienteering
11:32:27 92:27 159 Hrdlička Vojtěch VLI1004 8196055 C Slavia Liberec orienteering
11:38:00 98:00 156 Perašin Matúš 0150003 1712977 015-KOB Martin
11:39:00 99:00 158 Havlík Andrej 0110008 307272 011-KOB Sokol Pezinok
11:40:00 100:00 163 Goffa Tobi 0150007 1712975 015-KOB Martin
11:41:00 101:00 165 Szabó Danko 0110009 8110032 011-KOB Sokol Pezinok
11:42:00 102:00 160 Červinka Vojtěch VRL0903 2084990 C OOS TJ Spartak Vrchlabí
11:43:00 103:00 168 Volkov Vladyslav TRI1005 8071292 C TJ TŽ Třinec
11:44:00 104:00 167 Oravec Ďuri 0110022 2111078 011-KOB Sokol Pezinok
11:45:00 105:00 162 Nemček Danko 0110024 8200057 011-KOB Sokol Pezinok

H16 4.09 km, 215 m, 10 kontrol, Start: 1

Čas startu Čas startu od 00 Start. č. Jméno Reg. číslo SI čip Lic. Klub
10:15:00 15:00 155 Škorpil Marek HOR0900 8064484 B TJ Jiskra Hořice
10:42:20 42:20 173 Doucha Tomáš SNA0801 8019416 B TJ START Náchod
10:48:00 48:00 172 Mikloš Maty 0110007 1407840 011-KOB Sokol Pezinok
10:49:00 49:00 171 Horáček Martin 0150001 1712973 015-KOB Martin
10:50:00 50:00 170 Trajanov Tobi 0110003 2111071 011-KOB Sokol Pezinok
10:51:00 51:00 174 Dojčar Dami 0110004 2211365 011-KOB Sokol Pezinok

H18 4.99 km, 230 m, 15 kontrol, Start: 1

Čas startu Čas startu od 00 Start. č. Jméno Reg. číslo SI čip Lic. Klub
10:45:00 45:00 179 Doucha Martin SNA0501 8076025 B TJ START Náchod
10:58:09 58:09 178 Kotyk Vojtěch LTU0502 8085196 B OOB TJ Lokomotiva Trutnov
11:27:37 87:37 175 Kuchárik Janči 0110012 8300093 011-KOB Sokol Pezinok
11:33:00 93:00 180 Kándl Matěj PGP0508 2102710 B SK Praga
11:34:00 94:00 181 Kapusta Luky 0110027 1407864 011-KOB Sokol Pezinok
11:35:00 95:00 177 Zelník Ajo 0110019 2111077 011-KOB Sokol Pezinok

H21A 5.73 km, 280 m, 17 kontrol, Start: 1

Čas startu Čas startu od 00 Start. č. Jméno Reg. číslo SI čip Lic. Klub
10:00:00 00:00 184 Rollier Baptiste PHK8200 8270982 E OK 99 Hradec Králové
10:17:12 17:12 194 Udržal Tomáš LPU8002 8656530 C OK Lokomotiva Pardubice
10:29:47 29:47 196 Zelinka Jiří MBM8740 8656681 C O-mikron
10:30:31 30:31 192 Thoř Tomáš TUR9904 8430131 C OOB TJ Turnov
10:41:28 41:28 200 Pachnik Wojciech 19P9100 8210991 UKS "Orientpark.pl" Iwiny
10:48:13 48:13 187 Valenta Ondřej JIL0401 8226326 A OK Jilemnice
10:49:24 49:24 199 Junek Petr STH7801 8660910 C SK Studenec
10:54:27 54:27 198 Šabatka Zdeněk PHK8900 8660923 C OK 99 Hradec Králové
11:00:00 60:00 189 David Tomáš LLI0000 2118932 C LOK-o Liberec
11:01:00 61:00 190 Gregor Martin DKP7705 8014551 C Oddíl OB Kotlářka
11:02:00 62:00 188 Locker Daniel SRK0200 2222794 C SOOB Spartak Rychnov n.Kn.
11:03:00 63:00 197 Kohl Ondřej KPY8600 8500064 C SOOB TJ Sokol Kralupy n.Vlt.
11:04:00 64:00 205 Janata Karel 0300001 7202573 030-HSK Benecko
11:05:00 65:00 202 Zikmund Zdeněk SJC9703 8045221 C Sportcentrum Jičín
11:06:00 66:00 387 Janda Martin DOB8002 8662322 C KOB Dobruška
11:07:00 67:00 208 Voleský Leoš KAM7900 2049553 C OK Kamenice
11:08:00 68:00 207 Kubina Matěj 0320001 7202574 032-HSK Benecko 2
11:09:00 69:00 185 Hejna Martin TAP8101 8022652 C KOB Tretra Praha
11:10:00 70:00 213 Hošek Radim TAP8737 8087370 C KOB Tretra Praha
11:11:00 71:00 212 Holas Štěpán SJC8702 8040808 C Sportcentrum Jičín
11:12:00 72:00 204 Dutkowski Mikolaj CHC9201 8010192 C K.O.B. Choceň
11:13:00 73:00 191 Hrouda Matěj JIL9804 2035717 C OK Jilemnice
11:14:00 74:00 183 Choutka Matěj NPA0402 8482062 B SK LOB Nová Paka

H21B 4.98 km, 270 m, 16 kontrol, Start: 1

Čas startu Čas startu od 00 Start. č. Jméno Reg. číslo SI čip Lic. Klub
10:00:00 00:00 220 Potštejnský Jan SRK7807 9525 C SOOB Spartak Rychnov n.Kn.
10:31:54 31:54 221 Retek David LTU0402 8004736 C OOB TJ Lokomotiva Trutnov

H21C 4.21 km, 220 m, 14 kontrol, Start: 1

Čas startu Čas startu od 00 Start. č. Jméno Reg. číslo SI čip Lic. Klub
10:45:00 45:00 222 Havlík Adam 0110025 8025003 011-KOB Sokol Pezinok
10:50:10 50:10 224 Mikloš Ajo 0110020 8025007 011-KOB Sokol Pezinok
10:56:00 56:00 223 Hostačný Samko 0110011 2211373 011-KOB Sokol Pezinok

H35A 5.23 km, 245 m, 15 kontrol, Start: 1

Čas startu Čas startu od 00 Start. č. Jméno Reg. číslo SI čip Lic. Klub
10:00:00 00:00 232 Novák Jiří NPA7502 8063047 C SK LOB Nová Paka
10:06:00 06:00 226 Hanč Petr TAP8004 8226332 C KOB Tretra Praha
10:07:00 07:00 228 Mašata Roman PHK7107 8648595 C OK 99 Hradec Králové
10:08:00 08:00 231 Peteráč Zdeněk VLI7802 8109351 C Slavia Liberec orienteering
10:09:00 09:00 229 Krampla Tomáš UOL6601 8454046 C SOB Olomouc
10:10:00 10:00 230 Žitný Tomáš SMB6401 49971 C SKOB Mladá Boleslav
10:11:00 11:00 227 Szymanský Filip DKP8208 8008302 C Oddíl OB Kotlářka
10:12:00 12:00 408 Bartoš Marián VSP8201 8660511 C USK Praha
10:13:00 13:00 236 Šafránek Michal VRL8801 8970 C OOS TJ Spartak Vrchlabí
10:14:00 14:00 239 Koldinský Jan KPY8506 8116797 C SOOB TJ Sokol Kralupy n.Vlt.
10:15:00 15:00 225 Hanslian David LCE7835 0 C OOB TJ Slovan Luhačovice
10:16:00 16:00 238 Tomášek Petr STE8001 52462 C SK SKI-OB Šternberk
10:17:00 17:00 240 Antoš Filip NPA8001 8047182 C SK LOB Nová Paka
10:18:00 18:00 237 Novák Zdeněk NPA7701 8047121 C SK LOB Nová Paka

H35B 3.99 km, 180 m, 13 kontrol, Start: 1

Čas startu Čas startu od 00 Start. č. Jméno Reg. číslo SI čip Lic. Klub
10:36:00 36:00 241 Stefaniak Marcin 23P7900 8230779 OK!Sport Warszawa

H45A 4.78 km, 225 m, 15 kontrol, Start: 1

Čas startu Čas startu od 00 Start. č. Jméno Reg. číslo SI čip Lic. Klub
10:30:00 30:00 248 Chrást Tomáš STH7401 8670473 C SK Studenec
10:45:30 45:30 251 Doucha Jiří SNA7105 8655470 C TJ START Náchod
11:09:36 69:36 246 Locker Martin SRK7001 8410782 C SOOB Spartak Rychnov n.Kn.
11:10:46 70:46 249 Thackray Ricky 0070001 8078789 007-Bayside Kangaroos
11:14:37 74:37 243 Kvášovský Jakub LTU7802 8680297 C OOB TJ Lokomotiva Trutnov
11:16:59 76:59 247 Waldhauser Martin BOR7106 8160182 C OK Jiskra Nový Bor
11:22:00 82:00 252 Raisr Ivo VLI7803 8008270 C Slavia Liberec orienteering
11:23:00 83:00 242 Gröpel Peter 0330002 8110255 033-Akademik TU Košice
11:24:00 84:00 390 Šmehlík Ondřej XXX 2084989 XXX
11:25:00 85:00 250 Karl August 0250001 8076031 025-SPORT45

H45B 3.89 km, 165 m, 13 kontrol, Start: 1

Čas startu Čas startu od 00 Start. č. Jméno Reg. číslo SI čip Lic. Klub
11:05:00 65:00 255 Glier Jan OSN7701 8107719 C SK Orientační sporty Nové Město na Moravě
11:17:16 77:16 257 Vaculovič Radim DOR7505 8119443 C OK Dobříš
11:23:00 83:00 256 Žebrák Zbyněk LOV7101 232429 C lepus.cz
11:24:00 84:00 259 Nechuta Milan PZR7007 8022374 C UNITOP SKP Žďár nad Sázavou
11:25:00 85:00 258 Furmánek Zdeněk KVS7400 8116816 C SKOB Kobra Vsetín
11:26:00 86:00 261 Vých Luboš SRK7300 2095976 C SOOB Spartak Rychnov n.Kn.

H55A 3.87 km, 175 m, 14 kontrol, Start: 1

Čas startu Čas startu od 00 Start. č. Jméno Reg. číslo SI čip Lic. Klub
10:00:00 00:00 265 Švarc Jiří JEN6201 8656556 C OB Jenišovice
10:02:38 02:38 264 Finkenstaedt Björn 0100001 8657683 010-Team Sonnenschein
10:03:37 03:37 262 Jordanov Nikolaj VBM6501 8680303 C VSK Mendelu Brno
10:31:49 31:49 263 Kubec Pavel STB6601 8119538 C TJ Stadion Nový Bor
10:37:00 37:00 266 Vávra Martin HOR6302 8680322 C TJ Jiskra Hořice
10:38:00 38:00 268 Kožina Petr PGP6000 8670455 C SK Praga

H55B 2.76 km, 105 m, 10 kontrol, Start: 1

Čas startu Čas startu od 00 Start. č. Jméno Reg. číslo SI čip Lic. Klub
11:05:00 65:00 270 Hanuš Pavel LTU6501 8680288 C OOB TJ Lokomotiva Trutnov
11:07:39 67:39 274 Vydra Pavel PEN6200 8051254 C OK RECO Sport
11:36:58 96:58 272 Holec Honza MOV6701 8003657 C SKOB Ostrava
11:42:26 102:26 273 Wrzesiński Krzysztof 0090001 8210770 009-September Team
11:48:00 108:00 271 Švejda Antonin 0060001 406977 006-No Name

H65 3.17 km, 145 m, 10 kontrol, Start: 1

Čas startu Čas startu od 00 Start. č. Jméno Reg. číslo SI čip Lic. Klub
10:15:00 15:00 284 Westin Kjell 0160001 8051248 016-Porsgrunn OL
10:15:38 15:38 278 Minchev Ivan MFP5700 8116819 C Matfyz Praha
10:22:16 22:16 281 Škoda Přemek VLI5301 8111113 C Slavia Liberec orienteering
10:37:06 37:06 279 Provazník Jiří TUR5102 8660468 C OOB TJ Turnov
11:12:16 72:16 286 Farář Jaroslav VRL5002 8064524 C OOS TJ Spartak Vrchlabí
11:18:00 78:00 276 Peterka František TJP4900 8861 C TJ Sokol Troja
11:19:00 79:00 283 Makovicka Libor 0030001 8101952 003-CO Colmar
11:20:00 80:00 290 Pech Jiří LPM5402 2067253 C OK Lokomotiva Plzeň
11:21:00 81:00 277 Hones Sepp 26A5400 8116117 HSV Ried
11:22:00 82:00 287 Knap Jan LPU5101 8116813 C OK Lokomotiva Pardubice
11:23:00 83:00 291 Škorpil Martin HOR5700 8670484 C TJ Jiskra Hořice
11:24:00 84:00 289 Dvořák Vlastimil BOV4901 2113502 C TJ Baník Ostrava OKD
11:25:00 85:00 285 Hickethier Manfred VLI5201 8606435 C Slavia Liberec orienteering
11:26:00 86:00 280 Procházka Antonín DCE5500 8303070 C KOB Dobřichovice

H75 3.17 km, 145 m, 10 kontrol, Start: 1

Čas startu Čas startu od 00 Start. č. Jméno Reg. číslo SI čip Lic. Klub
10:00:00 00:00 294 Hlavatý Karel SJP4200 53507 C KČT Slavoj Praha
10:02:00 02:00 295 Havlík Jaroslav SJC3601 8338383 C Sportcentrum Jičín

HDR 1.42 km, 50 m, 7 kontrol, Start: 2

Čas startu Čas startu od 00 Start. č. Jméno Reg. číslo SI čip Lic. Klub
10:00:00 00:00 299 Kolaja Cyril VLI1749 1398538 Slavia Liberec orienteering
10:00:00 00:00 357 Procházka Erik DCE1800 51966 C KOB Dobřichovice
10:00:00 00:00 301 Novák Tadeáš NPA1701 515421 C SK LOB Nová Paka
10:00:00 00:00 300 Haider Anna 26A5650 8630860 HSV Ried
10:00:00 00:00 396 Kopec Vít XXX 8047169 XXX
10:00:00 00:00 409 Bartoš Martin VSP1700 8100098 C USK Praha
10:00:00 00:00 358 Procházka Adam DCE1600 1954721 C KOB Dobřichovice
10:00:00 00:00 368 Rollier Eva PHK1851 515494 C OK 99 Hradec Králové
10:00:00 00:00 296 Hanslianová Linda LCE1952 995862 C OOB TJ Slovan Luhačovice
10:00:00 00:00 311 Šebelková Magdaléna VLI1651 4402219 C Slavia Liberec orienteering
10:00:00 00:00 305 Peteráč Jindřich VLI1502 2032117 C Slavia Liberec orienteering
10:00:00 00:00 306 Gregor Vilém DOB2100 7221 C KOB Dobruška
10:00:00 00:00 304 Pecánková Barbora TEP1451 49546 C Tempo Praha
10:00:00 00:00 298 Lachká Dodo 0110014 2111074 011-KOB Sokol Pezinok
10:00:00 00:00 297 Handrková Johana 0120002 4402228 012-Handrci
10:00:00 00:00 309 Mokrá Ludmila VLI1650 7710 C Slavia Liberec orienteering
10:00:00 00:00 302 Potštejnský Jirka SRK1649 2224153 SOOB Spartak Rychnov n.Kn.

P 2.75 km, 50 m, 8 kontrol, Start: 2

Čas startu Čas startu od 00 Start. č. Jméno Reg. číslo SI čip Lic. Klub
10:00:00 00:00 316 Junek Petr STH5501 9200530 C SK Studenec
10:00:00 00:00 317 Kalenská Vendula STH9352 2001957 C SK Studenec
10:00:00 00:00 362 Zenkerová Miluška LCV 253150 TJ Lokomotiva Chomutov
10:00:00 00:00 378 Guida Ilona XXX 2419991 XXX
10:00:00 00:00 364 Dlouhý Robert XXX 8014547 XXX
10:00:00 00:00 321 Weberová Adéla 0210001 207832 021-Adi
10:00:00 00:00 318 Makaloušová Anna 0050002 8066763 005-Špindl sportuje
10:00:00 00:00 34 Feřtová Anežka VLI0856 2120065 C Slavia Liberec orienteering
10:00:00 00:00 314 Hanslianová Barbora LCE8252 2088162 C OOB TJ Slovan Luhačovice
10:00:00 00:00 324 Weberová Adéla PHK0155 207832 C OK 99 Hradec Králové
10:00:00 00:00 313 Nováková Jana STH8352 2122248 C SK Studenec

T 4.95 km, 205 m, 17 kontrol, Start: 2

Čas startu Čas startu od 00 Start. č. Jméno Reg. číslo SI čip Lic. Klub
10:00:00 00:00 339 Vach Vladimír KOR6900 2106728 C OB DDM Kostelec nad Orlicí
10:00:00 00:00 340 Sedláčková Petra KOR7451 2106724 C OB DDM Kostelec nad Orlicí
10:00:00 00:00 341 Šafránková Zuzana 0260001 2211969 026-Vrchlabí
10:00:00 00:00 337 Sedláček David SRK0508 8014561 C SOOB Spartak Rychnov n.Kn.
10:00:00 00:00 329 Havlíková Ema 0110029 8025014 011-KOB Sokol Pezinok
10:00:00 00:00 330 Kubát Miroslav VRL6701 8977 C OOS TJ Spartak Vrchlabí
10:00:00 00:00 338 Dunka Štěpán 0050004 8151987 005-Špindl sportuje
10:00:00 00:00 394 Škrabálek Jan KYL7000 2067260 C SK SP Kylešovice
10:00:00 00:00 407 Polák Vlastimil VRL7702 0 C OOS TJ Spartak Vrchlabí
10:00:00 00:00 413 Kopcová Michaela XXX 8063086 XXX
10:00:00 00:00 388 Karhánek Jakub XXX 207846 XXX
10:00:00 00:00 343 Fukalová Hana AOP9850 2103679 C Orientační Běh Opava
10:00:00 00:00 356 Heczko Stanislav XXX 2001978 XXX
10:00:00 00:00 360 Kohout Pavel JIL7502 8107715 C OK Jilemnice
10:00:00 00:00 351 Šebelka Jan VLI7506 51227 C Slavia Liberec orienteering
10:00:00 00:00 348 Hrdá Martina VLI7457 2800001 C Slavia Liberec orienteering
10:00:00 00:00 345 Mokrý Pavel VLI7501 8102561 C Slavia Liberec orienteering
10:00:00 00:00 336 Kubeša Vladimír VLI7507 8660479 C Slavia Liberec orienteering
10:00:00 00:00 347 Hrdý Pavel VLI7404 2800326 C Slavia Liberec orienteering
10:00:00 00:00 335 Matějů Kateřina 0010001 2181916 001-Ner
10:00:00 00:00 333 Pech Richard 0040001 2148088 004-Och421
10:00:00 00:00 334 Čaloun Michal VLI6801 2109695 C Slavia Liberec orienteering
10:00:00 00:00 326 Heczková Bohdana VLI7750 8328670 C Slavia Liberec orienteering
10:00:00 00:00 328 Fukalová Radmila AOV7051 232136 C OOB TJ Baník Ostrava
10:00:00 00:00 350 Handrk Pavel 0120001 2212702 012-Handrci
10:00:00 00:00 349 Mokrá Julie VLI8051 8033227 C Slavia Liberec orienteering
10:00:00 00:00 332 Feřt Martin VLI7704 2118489 C Slavia Liberec orienteering
10:00:00 00:00 346 Šebelková Štěpánka VLI7851 2127581 C Slavia Liberec orienteering
10:00:00 00:00 327 Feřtová Jitka VLI7853 2120063 C Slavia Liberec orienteering